Time;durP1;ratioP1;P1;durP2;ratioP2;P2;SDS_P1;SDS_P2;PMS_P1;PMS_P2;Temp;Humidity;BMP_temperature;BMP_pressure;BME280_temperature;BME280_humidity;BME280_pressure;Samples;Min_cycle;Max_cycle;Signal;HPM_P1;HPM_P2
2022/08/10 00:00:40;;;;;;;5.00;1.80;;;;;;;17.04;76.23;99538.50;104589;1274;75137;-24
2022/08/10 00:03:08;;;;;;;3.20;1.30;;;;;;;16.87;77.37;99540.55;104687;1271;64760;-24
2022/08/10 00:05:36;;;;;;;2.30;1.40;;;;;;;17.28;76.32;99537.02;104583;1271;61109;-24
2022/08/10 00:08:23;;;;;;;3.20;1.40;;;;;;;17.67;74.43;99531.92;104744;1274;76584;-24
2022/08/10 00:10:52;;;;;;;1.70;1.40;;;;;;;17.60;74.29;99530.85;104735;1271;76897;-24
2022/08/10 00:13:20;;;;;;;6.20;1.50;;;;;;;17.35;74.50;99535.41;104685;1271;75385;-24
2022/08/10 00:15:47;;;;;;;2.30;1.30;;;;;;;17.13;75.42;99538.46;104590;1274;61064;-24
2022/08/10 00:18:24;;;;;;;2.00;1.50;;;;;;;16.88;75.66;99544.26;104713;1272;62105;-24
2022/08/10 00:21:06;;;;;;;1.60;1.10;;;;;;;16.75;76.23;99546.80;104638;1274;76536;-24
2022/08/10 00:23:35;;;;;;;1.80;1.20;;;;;;;17.17;75.38;99544.89;104686;1274;77193;-24
2022/08/10 00:26:04;;;;;;;3.00;1.50;;;;;;;17.51;73.75;99548.48;105085;1271;74511;-24
2022/08/10 00:28:31;;;;;;;2.10;1.40;;;;;;;17.44;73.69;99549.67;104897;1272;61141;-24
2022/08/10 00:30:58;;;;;;;3.00;1.30;;;;;;;17.13;74.49;99549.55;104657;1273;62949;-24
2022/08/10 00:33:26;;;;;;;2.50;1.60;;;;;;;16.91;75.37;99548.54;104623;1274;76602;-24
2022/08/10 00:35:53;;;;;;;2.50;1.80;;;;;;;16.71;76.02;99548.55;104695;1271;76548;-24
2022/08/10 00:38:21;;;;;;;1.70;1.10;;;;;;;16.53;76.50;99546.11;104733;1274;75103;-24
2022/08/10 00:40:48;;;;;;;3.50;1.20;;;;;;;16.96;76.01;99541.24;104629;1271;61835;-24
2022/08/10 00:43:16;;;;;;;2.40;1.20;;;;;;;17.45;74.07;99541.74;104716;1274;62775;-24
2022/08/10 00:45:51;;;;;;;2.70;1.50;;;;;;;17.40;73.72;99542.22;104686;1274;74567;-24
2022/08/10 00:48:27;;;;;;;1.60;1.40;;;;;;;17.11;74.43;99540.09;104694;1274;76977;-24
2022/08/10 00:50:56;;;;;;;3.20;1.60;;;;;;;16.81;75.49;99544.41;104824;1274;75935;-24
2022/08/10 00:53:28;;;;;;;4.40;1.70;;;;;;;16.58;76.51;99544.43;104661;1274;61163;-24
2022/08/10 00:55:55;;;;;;;1.80;1.10;;;;;;;16.39;77.10;99541.16;104568;1273;61887;-24
2022/08/10 00:58:43;;;;;;;2.50;1.00;;;;;;;16.87;76.14;99536.83;104640;1274;76566;-24
2022/08/10 01:01:10;;;;;;;3.60;1.40;;;;;;;17.24;74.24;99534.96;104672;1274;76776;-24
2022/08/10 01:03:57;;;;;;;3.40;1.40;;;;;;;17.14;74.37;99534.26;104804;1274;75478;-24
2022/08/10 01:07:21;;;;;;;4.30;1.60;;;;;;;16.89;75.04;99536.45;104691;1274;63114;-24
2022/08/10 01:10:08;;;;;;;3.40;1.80;;;;;;;16.58;76.07;99534.61;104763;1274;62869;-24
2022/08/10 01:12:41;;;;;;;1.40;1.00;;;;;;;16.41;76.87;99533.44;104950;1274;76624;-24
2022/08/10 01:15:11;;;;;;;2.70;1.70;;;;;;;16.84;75.80;99533.23;104711;1274;76942;-24
2022/08/10 01:18:04;;;;;;;2.00;1.30;;;;;;;17.13;73.98;99535.38;104672;1274;75526;-24
2022/08/10 01:20:37;;;;;;;2.60;1.40;;;;;;;17.05;74.22;99534.17;104660;1274;62089;-24
2022/08/10 01:23:10;;;;;;;1.80;1.40;;;;;;;16.81;74.70;99539.20;104637;1274;62055;-24
2022/08/10 01:25:58;;;;;;;4.20;2.10;;;;;;;16.56;75.38;99537.58;104795;1274;76477;-24
2022/08/10 01:28:44;;;;;;;3.00;1.70;;;;;;;16.29;76.52;99540.05;105034;1274;76828;-24
2022/08/10 01:31:15;;;;;;;2.10;1.20;;;;;;;16.12;77.25;99537.73;104926;1273;75319;-24
2022/08/10 01:33:49;;;;;;;3.40;1.50;;;;;;;16.56;75.47;99534.66;104532;1274;62028;-24
2022/08/10 01:36:33;;;;;;;2.10;1.30;;;;;;;16.91;74.25;99526.95;104647;1272;63064;-24
2022/08/10 01:39:02;;;;;;;2.90;1.60;;;;;;;17.01;73.81;99528.13;104629;1274;76136;-24
2022/08/10 01:41:33;;;;;;;2.70;1.40;;;;;;;16.66;74.54;99529.60;104800;1274;77002;-24
2022/08/10 01:44:24;;;;;;;4.00;1.60;;;;;;;16.37;75.75;99533.18;104650;1271;73320;-24
2022/08/10 01:46:54;;;;;;;2.40;1.40;;;;;;;16.18;76.37;99528.98;104619;1271;61056;-24
2022/08/10 01:49:23;;;;;;;2.60;1.10;;;;;;;16.06;77.14;99527.55;104636;1274;61927;-23
2022/08/10 01:51:52;;;;;;;2.00;1.10;;;;;;;16.49;76.04;99528.62;104482;1272;75282;-24
2022/08/10 01:54:21;;;;;;;4.30;1.20;;;;;;;16.94;74.30;99525.44;104663;1274;77165;-24
2022/08/10 01:56:50;;;;;;;2.70;1.60;;;;;;;16.82;73.79;99525.58;104533;1274;74405;-24
2022/08/10 01:59:30;;;;;;;3.70;1.50;;;;;;;16.78;73.97;99529.48;104415;1274;63316;-23
2022/08/10 02:02:00;;;;;;;2.20;1.30;;;;;;;16.54;74.71;99531.27;104591;1271;61090;-24
2022/08/10 02:04:28;;;;;;;2.70;1.70;;;;;;;16.31;75.44;99534.09;104524;1274;75454;-23
2022/08/10 02:06:55;;;;;;;1.40;0.80;;;;;;;16.11;75.77;99530.88;104750;1272;77048;-24
2022/08/10 02:09:25;;;;;;;3.80;1.30;;;;;;;16.46;75.88;99531.19;104712;1271;74238;-24
2022/08/10 02:11:53;;;;;;;4.20;1.20;;;;;;;16.89;73.87;99528.52;104410;1274;63138;-24
2022/08/10 02:14:38;;;;;;;1.40;1.30;;;;;;;16.89;73.55;99532.06;104520;1271;61164;-24
2022/08/10 02:17:08;;;;;;;3.70;1.60;;;;;;;16.71;73.49;99533.46;104688;1274;74450;-24
2022/08/10 02:19:57;;;;;;;2.60;1.50;;;;;;;16.38;74.28;99536.38;104659;1274;76971;-24
2022/08/10 02:22:24;;;;;;;4.10;1.60;;;;;;;16.06;75.44;99536.50;104538;1274;75532;-24
2022/08/10 02:25:08;;;;;;;1.50;1.10;;;;;;;15.79;76.24;99540.23;104680;1274;62565;-24
2022/08/10 02:27:55;;;;;;;2.00;1.30;;;;;;;16.26;75.44;99541.92;104777;1274;61817;-24
2022/08/10 02:30:23;;;;;;;2.40;1.50;;;;;;;16.56;73.95;99541.27;104742;1271;75827;-24
2022/08/10 02:32:52;;;;;;;2.90;1.60;;;;;;;16.49;74.09;99546.36;105076;1271;76210;-24
2022/08/10 02:35:20;;;;;;;4.50;1.50;;;;;;;16.24;74.71;99547.02;104760;1274;75450;-24
2022/08/10 02:37:52;;;;;;;3.00;1.70;;;;;;;16.04;75.08;99548.58;104697;1274;62756;-26
2022/08/10 02:40:20;;;;;;;3.80;1.70;;;;;;;15.80;75.46;99552.40;104730;1274;61131;-24
2022/08/10 02:43:29;;;;;;;2.10;1.30;;;;;;;15.56;76.70;99550.42;104619;1274;76285;-24
2022/08/10 02:46:26;;;;;;;2.60;1.60;;;;;;;16.12;76.05;99553.56;104606;1274;75905;-24
2022/08/10 02:48:58;;;;;;;3.00;1.70;;;;;;;16.36;74.49;99552.16;104619;1274;74451;-24
2022/08/10 02:51:41;;;;;;;3.40;1.80;;;;;;;16.12;75.00;99553.81;104540;1274;63057;-24
2022/08/10 02:54:32;;;;;;;5.60;1.70;;;;;;;15.65;76.56;99549.42;104663;1274;63326;-24
2022/08/10 02:57:32;;;;;;;2.30;2.00;;;;;;;15.34;78.10;99551.99;104694;1274;75362;-24
2022/08/10 03:00:02;;;;;;;4.80;1.50;;;;;;;15.12;78.95;99551.54;104548;1274;76998;-24
2022/08/10 03:02:41;;;;;;;2.90;1.50;;;;;;;15.57;77.68;99557.02;104625;1274;73987;-24
2022/08/10 03:05:10;;;;;;;3.10;1.70;;;;;;;15.90;76.07;99557.39;104625;1274;62782;-24
2022/08/10 03:07:45;;;;;;;6.30;1.90;;;;;;;15.79;76.43;99562.30;104654;1274;63011;-24
2022/08/10 03:10:16;;;;;;;2.10;1.80;;;;;;;15.62;76.76;99561.95;104625;1274;76603;-24
2022/08/10 03:12:46;;;;;;;2.30;1.50;;;;;;;15.51;77.04;99572.25;104631;1274;77153;-23
2022/08/10 03:15:15;;;;;;;4.80;1.20;;;;;;;15.42;77.21;99570.86;104687;1274;75336;-24
2022/08/10 03:17:45;;;;;;;3.80;1.40;;;;;;;15.87;76.52;99571.52;104668;1274;62083;-24
2022/08/10 03:20:26;;;;;;;5.60;1.80;;;;;;;16.42;74.22;99570.46;104595;1274;62330;-24
2022/08/10 03:23:17;;;;;;;3.70;1.60;;;;;;;16.54;73.90;99574.59;104596;1274;76501;-24
2022/08/10 03:25:45;;;;;;;3.30;1.90;;;;;;;16.51;73.36;99569.28;104293;1275;77062;-24
2022/08/10 03:28:27;;;;;;;3.20;1.90;;;;;;;16.31;73.56;99566.85;104581;1271;75425;-24
2022/08/10 03:30:55;;;;;;;3.40;1.90;;;;;;;16.04;74.22;99569.45;104619;1271;61163;-23
2022/08/10 03:33:25;;;;;;;2.00;1.40;;;;;;;15.86;74.85;99570.95;104723;1274;61766;-24
2022/08/10 03:35:52;;;;;;;3.10;1.50;;;;;;;16.26;74.07;99568.59;104871;1274;76616;-24
2022/08/10 03:38:39;;;;;;;4.40;1.70;;;;;;;16.75;72.43;99566.72;104607;1274;75066;-24
2022/08/10 03:41:08;;;;;;;3.40;1.70;;;;;;;16.74;72.12;99570.14;104605;1274;75453;-24
2022/08/10 03:43:44;;;;;;;3.40;1.80;;;;;;;16.53;72.66;99573.27;104545;1271;63475;-24
2022/08/10 03:46:11;;;;;;;4.70;1.90;;;;;;;16.27;73.41;99575.60;104519;1274;61138;-24
2022/08/10 03:48:39;;;;;;;3.50;1.90;;;;;;;16.00;74.11;99571.35;104665;1271;75259;-24
2022/08/10 03:51:17;;;;;;;3.20;1.70;;;;;;;15.82;74.73;99570.44;104633;1274;76186;-24
2022/08/10 03:53:45;;;;;;;2.80;1.30;;;;;;;15.70;74.98;99573.99;104675;1274;75493;-24
2022/08/10 03:56:33;;;;;;;2.00;1.50;;;;;;;16.29;74.82;99581.52;104625;1274;61129;-24
2022/08/10 03:59:02;;;;;;;2.30;1.40;;;;;;;16.75;73.21;99575.85;104620;1272;61811;-24
2022/08/10 04:01:29;;;;;;;3.00;1.70;;;;;;;16.74;72.45;99579.34;104763;1272;75568;-24
2022/08/10 04:04:18;;;;;;;2.10;1.80;;;;;;;16.57;72.94;99578.89;104961;1274;75742;-24
2022/08/10 04:06:56;;;;;;;7.50;2.10;;;;;;;16.29;73.64;99575.27;104658;1274;74401;-24
2022/08/10 04:09:31;;;;;;;6.10;1.90;;;;;;;16.02;74.28;99575.90;104700;1274;63341;-24
2022/08/10 04:12:18;;;;;;;3.50;1.30;;;;;;;15.86;75.26;99573.36;104906;1271;62776;-24
2022/08/10 04:14:46;;;;;;;3.80;1.60;;;;;;;16.39;74.05;99571.47;104743;1274;76524;-24
2022/08/10 04:17:16;;;;;;;3.70;1.40;;;;;;;16.81;72.79;99567.71;104930;1271;77331;-24
2022/08/10 04:20:04;;;;;;;5.40;2.00;;;;;;;16.82;72.12;99565.18;104586;1274;75500;-24
2022/08/10 04:22:34;;;;;;;9.60;2.80;;;;;;;16.66;72.18;99566.95;104586;1274;62326;-24
2022/08/10 04:25:03;;;;;;;3.40;2.00;;;;;;;16.41;73.17;99566.73;104736;1274;62040;-24
2022/08/10 04:27:33;;;;;;;2.80;1.60;;;;;;;16.19;72.85;99567.77;104637;1271;76766;-24
2022/08/10 04:30:00;;;;;;;4.20;2.00;;;;;;;16.11;73.54;99567.33;104652;1274;76944;-24
2022/08/10 04:32:30;;;;;;;4.80;1.50;;;;;;;15.97;74.35;99571.14;104800;1274;74209;-25
2022/08/10 04:34:57;;;;;;;5.60;1.30;;;;;;;16.47;73.51;99572.95;104579;1274;61061;-24
2022/08/10 04:37:25;;;;;;;3.20;1.70;;;;;;;17.12;71.24;99567.33;104576;1273;61775;-24
2022/08/10 04:39:52;;;;;;;5.50;2.10;;;;;;;17.10;70.26;99565.80;104576;1274;76586;-24
2022/08/10 04:42:19;;;;;;;4.40;1.60;;;;;;;17.15;70.67;99570.25;104617;1274;76237;-24
2022/08/10 04:44:49;;;;;;;3.40;1.60;;;;;;;17.14;70.80;99572.90;104699;1271;75545;-24
2022/08/10 04:47:16;;;;;;;3.40;1.70;;;;;;;16.94;70.80;99573.50;104575;1272;61051;-24
2022/08/10 04:50:04;;;;;;;1.90;1.60;;;;;;;16.94;71.28;99572.64;104663;1274;63096;-24
2022/08/10 04:52:31;;;;;;;2.80;1.80;;;;;;;16.86;71.60;99570.77;104740;1272;75436;-24
2022/08/10 04:54:59;;;;;;;3.60;1.50;;;;;;;16.89;71.86;99572.77;104658;1271;76016;-24
2022/08/10 04:57:26;;;;;;;3.10;1.60;;;;;;;17.49;70.25;99566.59;104687;1274;74258;-26
2022/08/10 04:59:54;;;;;;;3.10;1.80;;;;;;;18.18;68.69;99566.34;104990;1272;62717;-24
2022/08/10 05:02:21;;;;;;;7.10;1.80;;;;;;;18.33;67.37;99562.98;104674;1274;61950;-24
2022/08/10 05:04:56;;;;;;;2.50;1.40;;;;;;;18.33;67.49;99559.44;104581;1272;75877;-24
2022/08/10 05:07:24;;;;;;;3.00;1.70;;;;;;;18.35;67.53;99562.66;104754;1274;76943;-24
2022/08/10 05:10:09;;;;;;;6.50;2.10;;;;;;;18.22;67.43;99569.44;104721;1273;75391;-24
2022/08/10 05:12:39;;;;;;;11.50;2.90;;;;;;;18.11;68.61;99570.47;104648;1274;61164;-24
2022/08/10 05:15:10;;;;;;;3.40;1.90;;;;;;;18.01;68.83;99569.18;104673;1274;61774;-24
2022/08/10 05:17:39;;;;;;;6.40;2.00;;;;;;;17.89;68.88;99564.65;104411;1274;76574;-24
2022/08/10 05:20:08;;;;;;;3.50;1.40;;;;;;;18.03;69.48;99568.99;104661;1274;75939;-24
2022/08/10 05:22:41;;;;;;;4.90;1.50;;;;;;;18.63;68.05;99569.07;104633;1274;73324;-25
2022/08/10 05:25:13;;;;;;;;;;;;;;;19.21;65.48;99567.39;104799;1274;63051;-25
2022/08/10 05:27:41;;;;;;;4.20;1.50;;;;;;;18.50;66.63;99567.59;104652;1274;61861;-24
2022/08/10 05:30:15;;;;;;;4.00;1.80;;;;;;;18.92;66.48;99567.19;104782;1274;75656;-24
2022/08/10 05:32:43;;;;;;;1.90;1.50;;;;;;;18.79;66.42;99565.73;104622;1274;76107;-24
2022/08/10 05:35:24;;;;;;;6.50;2.10;;;;;;;18.68;66.72;99565.11;104637;1274;75344;-24
2022/08/10 05:37:51;;;;;;;3.30;2.00;;;;;;;18.46;66.58;99561.66;104641;1274;62814;-24
2022/08/10 05:40:41;;;;;;;5.20;1.90;;;;;;;18.22;67.68;99561.60;104659;1274;62892;-24
2022/08/10 05:43:18;;;;;;;3.80;2.10;;;;;;;18.07;68.90;99564.21;104878;1274;76568;-24
2022/08/10 05:45:46;;;;;;;4.50;2.00;;;;;;;17.95;69.00;99561.52;104764;1274;75937;-24
2022/08/10 05:48:34;;;;;;;8.80;2.20;;;;;;;17.91;70.20;99564.60;104691;1274;75367;-24
2022/08/10 05:51:21;;;;;;;4.60;1.30;;;;;;;18.10;69.41;99563.67;104576;1274;64865;-23
2022/08/10 05:53:49;;;;;;;3.80;1.40;;;;;;;18.77;66.91;99563.70;104621;1274;62036;-24
2022/08/10 05:56:33;;;;;;;4.50;1.70;;;;;;;19.51;64.96;99562.73;104613;1274;76716;-25
2022/08/10 05:59:21;;;;;;;4.90;1.60;;;;;;;19.87;63.85;99558.40;104626;1274;76109;-22
2022/08/10 06:02:09;;;;;;;1.70;1.50;;;;;;;20.01;63.54;99564.18;104611;1274;75284;-23
2022/08/10 06:04:59;;;;;;;6.60;2.30;;;;;;;19.80;63.68;99563.92;104581;1274;61879;-23
2022/08/10 06:07:26;;;;;;;3.90;1.90;;;;;;;19.84;63.78;99557.29;104663;1272;62617;-24
2022/08/10 06:09:57;;;;;;;2.80;2.20;;;;;;;19.81;64.02;99556.41;104611;1273;76577;-24
2022/08/10 06:12:28;;;;;;;3.30;2.30;;;;;;;19.61;64.21;99558.58;104654;1274;76106;-26
2022/08/10 06:15:00;;;;;;;6.10;2.10;;;;;;;19.55;64.63;99561.24;104416;1274;73559;-25
2022/08/10 06:17:36;;;;;;;9.10;2.50;;;;;;;18.75;66.56;99559.31;104585;1274;61181;-24
2022/08/10 06:20:04;;;;;;;3.30;1.90;;;;;;;19.23;66.42;99559.74;104603;1275;62872;-25
2022/08/10 06:22:32;;;;;;;4.70;2.00;;;;;;;19.59;64.58;99562.67;104750;1273;76537;-25
2022/08/10 06:25:00;;;;;;;4.20;2.20;;;;;;;19.60;64.45;99564.04;104760;1273;77046;-25
2022/08/10 06:27:47;;;;;;;5.10;2.30;;;;;;;19.78;64.38;99569.20;104589;1274;75184;-25
2022/08/10 06:30:17;;;;;;;5.50;2.40;;;;;;;19.97;63.14;99571.54;104633;1274;62694;-25
2022/08/10 06:32:50;;;;;;;4.00;2.20;;;;;;;19.89;62.77;99575.13;104770;1274;63035;-25
2022/08/10 06:35:19;;;;;;;6.40;2.50;;;;;;;19.90;63.10;99579.56;104647;1274;76470;-25
2022/08/10 06:37:47;;;;;;;5.40;2.20;;;;;;;20.00;62.72;99579.89;104605;1274;76979;-25
2022/08/10 06:40:19;;;;;;;7.10;2.40;;;;;;;19.94;62.13;99573.27;104603;1274;74852;-25
2022/08/10 06:42:47;;;;;;;4.00;2.20;;;;;;;20.05;63.09;99572.40;104650;1274;62913;-25
2022/08/10 06:45:17;;;;;;;17.80;2.70;;;;;;;20.31;63.35;99576.69;104453;1274;63061;-25
2022/08/10 06:47:50;;;;;;;6.00;2.30;;;;;;;20.44;62.97;99573.79;104400;1274;76742;-25
2022/08/10 06:50:40;;;;;;;3.10;2.10;;;;;;;20.50;61.79;99572.45;104714;1274;75795;-25
2022/08/10 06:53:21;;;;;;;3.20;2.00;;;;;;;20.58;62.08;99570.06;104646;1274;75393;-23
2022/08/10 06:55:55;;;;;;;4.10;2.00;;;;;;;20.53;61.92;99566.65;104460;1274;62015;-24
2022/08/10 06:58:25;;;;;;;5.20;1.70;;;;;;;20.29;60.39;99569.04;104439;1274;62723;-26
2022/08/10 07:00:53;;;;;;;3.40;2.20;;;;;;;20.56;61.34;99566.52;104633;1274;73922;-25
2022/08/10 07:03:25;;;;;;;5.00;2.10;;;;;;;20.78;61.62;99564.52;104683;1274;76825;-25
2022/08/10 07:05:52;;;;;;;4.30;2.00;;;;;;;21.00;60.31;99561.73;104629;1274;74158;-25
2022/08/10 07:08:20;;;;;;;8.30;2.00;;;;;;;21.01;58.26;99561.36;104559;1274;61173;-25
2022/08/10 07:10:48;;;;;;;6.10;2.20;;;;;;;20.63;58.32;99559.33;104753;1274;62024;-26
2022/08/10 07:13:15;;;;;;;9.00;2.20;;;;;;;20.43;58.93;99557.36;103771;1274;1712794;-25
2022/08/10 07:16:04;;;;;;;7.40;5.90;;;;;;;20.65;58.09;99556.92;104597;1274;77071;-24
2022/08/10 07:18:32;;;;;;;2.30;1.70;;;;;;;20.01;59.15;99551.66;104619;1274;75756;-25
2022/08/10 07:21:00;;;;;;;3.70;1.60;;;;;;;20.25;59.45;99552.20;104665;1274;61186;-24
2022/08/10 07:23:28;;;;;;;4.10;2.00;;;;;;;20.79;59.20;99551.73;104773;1274;63047;-25
2022/08/10 07:26:16;;;;;;;2.40;1.70;;;;;;;21.09;57.98;99551.55;104609;1274;76662;-25
2022/08/10 07:28:45;;;;;;;2.40;1.60;;;;;;;21.03;57.33;99552.77;104406;1273;76419;-25
2022/08/10 07:31:16;;;;;;;11.20;2.50;;;;;;;21.05;57.77;99553.54;104757;1273;75395;-25
2022/08/10 07:34:05;;;;;;;3.40;1.70;;;;;;;21.40;57.76;99552.46;104633;1274;62880;-25
2022/08/10 07:36:34;;;;;;;2.70;1.80;;;;;;;21.62;57.22;99554.70;104426;1274;63034;-25
2022/08/10 07:39:03;;;;;;;3.80;1.80;;;;;;;21.84;57.09;99549.52;104657;1274;76473;-25
2022/08/10 07:41:31;;;;;;;3.60;1.70;;;;;;;22.05;56.27;99550.55;104668;1272;75957;-25
2022/08/10 07:43:59;;;;;;;3.30;1.60;;;;;;;22.19;54.22;99546.02;104869;1274;75412;-25
2022/08/10 07:46:26;;;;;;;7.80;2.60;;;;;;;22.39;54.41;99544.52;104811;1274;61787;-25
2022/08/10 07:49:00;;;;;;;8.80;1.80;;;;;;;22.49;53.75;99546.50;104579;1274;61881;-25
2022/08/10 07:51:41;;;;;;;6.30;1.80;;;;;;;22.58;53.31;99548.01;104580;1274;74968;-25
2022/08/10 07:54:14;;;;;;;4.10;2.10;;;;;;;22.70;53.69;99547.01;104605;1271;75057;-24
2022/08/10 07:56:42;;;;;;;3.50;1.80;;;;;;;22.74;51.12;99547.11;104672;1273;75393;-25
2022/08/10 07:59:24;;;;;;;12.10;7.60;;;;;;;22.13;51.07;99547.49;104693;1274;61617;-23
2022/08/10 08:01:53;;;;;;;3.20;1.80;;;;;;;22.68;52.12;99549.07;104619;1274;62563;-25
2022/08/10 08:04:23;;;;;;;4.80;1.90;;;;;;;22.79;51.58;99546.80;104397;1274;75497;-24
2022/08/10 08:06:51;;;;;;;3.10;1.70;;;;;;;22.74;51.25;99545.48;104780;1274;76949;-24
2022/08/10 08:09:19;;;;;;;2.50;1.60;;;;;;;22.88;52.18;99547.67;104689;1271;75348;-25
2022/08/10 08:11:49;;;;;;;4.90;2.20;;;;;;;23.00;52.24;99548.04;104672;1273;63532;-24
2022/08/10 08:14:16;;;;;;;6.10;1.80;;;;;;;23.33;50.75;99546.45;104598;1271;63132;-24
2022/08/10 08:16:45;;;;;;;6.40;2.10;;;;;;;23.44;48.53;99546.86;104634;1271;76809;-24
2022/08/10 08:19:13;;;;;;;5.00;1.80;;;;;;;23.37;47.91;99547.05;104619;1272;76034;-25
2022/08/10 08:22:01;;;;;;;5.90;2.10;;;;;;;23.15;48.77;99546.75;104583;1274;75368;-25
2022/08/10 08:25:07;;;;;;;8.30;2.60;;;;;;;22.56;48.07;99538.98;105066;1271;62263;-24
2022/08/10 08:27:40;;;;;;;5.80;2.10;;;;;;;22.54;48.07;99537.32;104626;1271;61965;-24
2022/08/10 08:30:14;;;;;;;4.40;2.40;;;;;;;22.96;46.45;99539.52;104671;1274;76594;-25
2022/08/10 08:32:54;;;;;;;6.90;2.70;;;;;;;22.87;46.50;99540.67;104631;1274;75672;-24
2022/08/10 08:35:23;;;;;;;6.20;2.70;;;;;;;22.20;48.15;99536.19;104681;1274;75633;-25
2022/08/10 08:37:54;;;;;;;5.30;2.70;;;;;;;22.41;48.84;99538.42;104911;1274;62045;-24
2022/08/10 08:40:46;;;;;;;10.30;5.00;;;;;;;22.24;48.03;99530.63;101859;1307;601059;-23
2022/08/10 08:43:21;;;;;;;7.70;3.50;;;;;;;22.24;46.54;99530.51;104677;1275;61169;-23
2022/08/10 08:46:01;;;;;;;16.00;8.40;;;;;;;22.51;46.86;99523.94;104705;1275;61246;-23
2022/08/10 08:48:48;;;;;;;24.40;14.20;;;;;;;22.67;46.05;99517.95;104622;1275;73723;-23
2022/08/10 08:51:54;;;;;;;12.70;4.20;;;;;;;22.55;46.14;99516.90;104653;1274;76834;-23
2022/08/10 08:55:21;;;;;;;8.30;4.10;;;;;;;22.44;45.08;99497.68;103943;1271;1324231;-23
2022/08/10 08:58:28;;;;;;;13.60;6.90;;;;;;;22.50;45.01;99505.61;105000;1271;62710;-23
2022/08/10 09:00:55;;;;;;;7.80;4.30;;;;;;;23.27;44.67;99504.46;104719;1271;61786;-24
2022/08/10 09:03:54;;;;;;;17.00;9.10;;;;;;;23.88;43.44;99504.84;104885;1274;74878;-25
2022/08/10 09:06:40;;;;;;;6.30;3.80;;;;;;;23.42;41.89;99501.41;104987;1274;76969;-24
2022/08/10 09:09:14;;;;;;;9.10;4.40;;;;;;;23.55;42.71;99500.55;104865;1274;75238;-23
2022/08/10 09:12:01;;;;;;;8.90;4.40;;;;;;;23.48;42.22;99502.41;104860;1274;63071;-23
2022/08/10 09:14:39;;;;;;;2.30;1.20;;;;;;;23.69;44.08;99506.66;104855;1274;63023;-23
2022/08/10 09:17:26;;;;;;;3.50;1.30;;;;;;;23.69;43.86;99506.57;104675;1274;75345;-23
2022/08/10 09:19:54;;;;;;;6.60;4.20;;;;;;;23.34;44.09;99504.67;104581;1273;76998;-23
2022/08/10 09:22:39;;;;;;;6.70;1.60;;;;;;;23.17;43.83;99502.36;104777;1274;75774;-23
2022/08/10 09:25:18;;;;;;;7.90;1.20;;;;;;;23.66;43.10;99502.06;104645;1274;61047;-23
2022/08/10 09:27:47;;;;;;;6.00;3.70;;;;;;;23.90;42.19;99502.09;104648;1274;63341;-23
2022/08/10 09:30:21;;;;;;;4.70;1.80;;;;;;;23.98;43.82;99500.72;104581;1274;74411;-24
2022/08/10 09:33:03;;;;;;;2.90;1.60;;;;;;;24.04;45.17;99503.48;104337;1274;77027;-24
2022/08/10 09:36:00;;;;;;;;;;;;;;;24.11;44.67;99501.84;104438;1274;74198;-22
2022/08/10 09:39:09;;;;;;;3.80;1.60;;;;;;;24.71;44.05;99502.92;104595;1273;63059;-23
2022/08/10 09:42:04;;;;;;;3.80;1.40;;;;;;;24.93;42.47;99495.48;104713;1274;63084;-22
2022/08/10 09:44:46;;;;;;;4.10;1.10;;;;;;;24.79;42.40;99498.25;104601;1274;74795;-24
2022/08/10 09:47:52;;;;;;;1.80;1.10;;;;;;;24.77;42.48;99493.95;104679;1274;76991;-23
2022/08/10 09:50:36;;;;;;;3.80;1.30;;;;;;;24.90;41.75;99491.65;104997;1274;74152;-23
2022/08/10 09:53:44;;;;;;;2.70;1.80;;;;;;;24.39;42.64;99490.24;104861;1274;61374;-23
2022/08/10 09:56:28;;;;;;;2.20;1.00;;;;;;;24.29;42.75;99490.04;104775;1274;62049;-23
2022/08/10 09:59:22;;;;;;;7.10;1.30;;;;;;;24.58;42.54;99480.81;104618;1273;74917;-22
2022/08/10 10:02:42;;;;;;;3.30;1.20;;;;;;;24.86;41.24;99478.17;104556;1274;75077;-23
2022/08/10 10:05:50;;;;;;;2.20;1.20;;;;;;;25.30;40.82;99477.17;104863;1274;75467;-22
2022/08/10 10:08:39;;;;;;;3.80;1.10;;;;;;;25.28;40.19;99478.13;105068;1274;62791;-23
2022/08/10 10:11:09;;;;;;;2.90;1.90;;;;;;;24.61;41.70;99474.55;104448;1274;63162;-23
2022/08/10 10:13:50;;;;;;;3.40;1.90;;;;;;;24.64;41.82;99477.59;104561;1274;74794;-23
2022/08/10 10:16:39;;;;;;;3.80;1.40;;;;;;;24.68;40.58;99475.42;104696;1274;77436;-24
2022/08/10 10:19:34;;;;;;;10.20;7.90;;;;;;;24.56;40.46;99474.16;104717;1273;73363;-24
2022/08/10 10:22:24;;;;;;;3.20;1.40;;;;;;;23.52;41.52;99475.61;104700;1273;62866;-24
2022/08/10 10:25:02;;;;;;;1.80;1.20;;;;;;;24.13;42.16;99474.95;104630;1274;63303;-24
2022/08/10 10:27:58;;;;;;;5.00;2.50;;;;;;;24.46;40.93;99471.58;104643;1274;74519;-24
2022/08/10 10:30:30;;;;;;;1.50;0.90;;;;;;;24.78;40.78;99466.92;104594;1274;77037;-24
2022/08/10 10:33:16;;;;;;;6.00;1.40;;;;;;;25.23;39.94;99464.74;104611;1274;75800;-24
2022/08/10 10:35:53;;;;;;;6.00;1.70;;;;;;;25.79;39.53;99463.58;104686;1274;61133;-24
2022/08/10 10:38:26;;;;;;;1.60;1.20;;;;;;;24.91;38.89;99455.95;104736;1274;61715;-27
2022/08/10 10:41:16;;;;;;;4.20;1.60;;;;;;;24.55;39.38;99459.77;105007;1274;74464;-24
2022/08/10 10:44:44;;;;;;;8.30;6.40;;;;;;;24.49;39.70;99458.55;104615;1274;77012;-23
2022/08/10 10:47:27;;;;;;;2.90;1.30;;;;;;;24.40;40.75;99460.31;104513;1274;74363;-24
2022/08/10 10:50:52;;;;;;;2.10;1.10;;;;;;;24.57;39.78;99455.76;104385;1275;62508;-23
2022/08/10 10:53:20;;;;;;;5.60;3.80;;;;;;;24.10;39.86;99448.97;103747;1283;61670;-24
2022/08/10 10:56:18;;;;;;;2.30;1.60;;;;;;;24.92;38.71;99444.89;103806;1283;75842;-25
2022/08/10 10:59:11;;;;;;;8.30;3.50;;;;;;;24.78;39.13;99443.69;104237;1274;77228;-24
2022/08/10 11:02:52;;;;;;;3.40;2.30;;;;;;;24.74;39.52;99441.27;104613;1274;75404;-24
2022/08/10 11:05:46;;;;;;;2.60;1.30;;;;;;;25.88;39.51;99436.52;104197;1280;63084;-24
2022/08/10 11:08:27;;;;;;;3.30;1.20;;;;;;;26.44;37.31;99436.48;104200;1280;62990;-24
2022/08/10 11:11:01;;;;;;;5.60;3.00;;;;;;;25.76;37.42;99433.73;104559;1274;75907;-24
2022/08/10 11:13:41;;;;;;;11.70;5.40;;;;;;;24.93;38.28;99435.95;104605;1274;75704;-23
2022/08/10 11:16:36;;;;;;;4.40;1.20;;;;;;;25.25;38.75;99431.48;104685;1274;75814;-23
2022/08/10 11:19:12;;;;;;;2.20;1.40;;;;;;;26.15;37.41;99426.84;104806;1274;62157;-24
2022/08/10 11:22:08;;;;;;;6.80;1.50;;;;;;;26.72;35.39;99422.57;104690;1274;62059;-24
2022/08/10 11:24:48;;;;;;;5.70;1.00;;;;;;;26.95;34.38;99420.59;104921;1274;74131;-23
2022/08/10 11:27:40;;;;;;;2.30;1.30;;;;;;;25.76;35.06;99417.02;104641;1274;76023;-24
2022/08/10 11:30:31;;;;;;;2.60;1.10;;;;;;;26.19;34.83;99421.27;104634;1274;75049;-24
2022/08/10 11:33:15;;;;;;;2.60;0.80;;;;;;;26.64;33.36;99416.08;104393;1274;61141;-24
2022/08/10 11:36:16;;;;;;;1.50;1.00;;;;;;;26.24;33.05;99409.92;104545;1274;62815;-23
2022/08/10 11:39:20;;;;;;;1.50;1.10;;;;;;;25.78;33.53;99406.77;104735;1274;75887;-24
2022/08/10 11:42:10;;;;;;;10.70;7.20;;;;;;;26.11;33.71;99403.65;104600;1274;77015;-24
2022/08/10 11:45:01;;;;;;;4.10;1.20;;;;;;;26.23;33.05;99402.15;104558;1274;73592;-24
2022/08/10 11:47:44;;;;;;;3.30;1.50;;;;;;;25.55;34.76;99407.29;104684;1273;61901;-24
2022/08/10 11:50:27;;;;;;;1.60;0.80;;;;;;;25.59;34.50;99406.93;104610;1274;63029;-24
2022/08/10 11:53:46;;;;;;;5.40;4.90;;;;;;;25.81;34.08;99397.35;104644;1274;76708;-24
2022/08/10 11:56:20;;;;;;;2.30;1.70;;;;;;;26.27;33.26;99398.30;104438;1274;75475;-24
2022/08/10 12:01:43;;;;;;;3.30;2.00;;;;;;;24.92;36.44;99399.28;104833;1274;62891;-24
2022/08/10 12:04:10;;;;;;;1.20;1.00;;;;;;;25.16;36.99;99399.47;104756;1274;62949;-24
2022/08/10 12:06:38;;;;;;;6.20;3.20;;;;;;;24.54;37.43;99398.83;104660;1274;75646;-24
2022/08/10 12:09:22;;;;;;;13.30;8.40;;;;;;;24.35;38.70;99403.28;104547;1274;76965;-24
2022/08/10 12:12:10;;;;;;;12.70;8.40;;;;;;;23.71;39.08;99401.31;104430;1274;75529;-23
2022/08/10 12:14:58;;;;;;;3.70;1.60;;;;;;;23.34;40.43;99400.58;104571;1274;61450;-23
2022/08/10 12:17:33;;;;;;;7.50;4.60;;;;;;;23.23;40.86;99396.13;104603;1274;62902;-23